createdAt,value
2023-04-14T00:01:16.278Z,5.86
2023-04-14T00:06:20.488Z,5.86
2023-04-14T00:11:23.284Z,5.87
2023-04-14T00:16:26.175Z,5.86
2023-04-14T00:21:31.668Z,5.83
2023-04-14T00:26:34.513Z,5.88
2023-04-14T00:31:37.448Z,5.87
2023-04-14T00:36:41.794Z,5.73
2023-04-14T00:41:44.690Z,5.73
2023-04-14T00:46:47.948Z,5.73
2023-04-14T00:51:52.749Z,5.69
2023-04-14T00:56:57.977Z,5.66
2023-04-14T01:02:01.953Z,5.62
2023-04-14T01:07:06.279Z,5.57
2023-04-14T01:12:23.059Z,5.49
2023-04-14T01:17:33.846Z,5.47
2023-04-14T01:22:48.867Z,5.46
2023-04-14T01:28:05.524Z,4.38
2023-04-14T01:33:14.155Z,4.45
2023-04-14T01:38:23.141Z,4.56
2023-04-14T01:43:31.803Z,4.14
2023-04-14T01:48:37.114Z,4.29
2023-04-14T01:53:44.807Z,4.37
2023-04-14T01:58:50.314Z,4.50
2023-04-14T02:03:54.927Z,4.54
2023-04-14T02:09:01.059Z,4.41
2023-04-14T02:14:04.802Z,4.14
2023-04-14T02:19:10.230Z,4.02
2023-04-14T02:24:13.246Z,4.06
2023-04-14T02:29:21.018Z,4.20
2023-04-14T02:34:29.401Z,4.32
2023-04-14T02:39:38.213Z,4.49
2023-04-14T02:44:46.860Z,4.45
2023-04-14T02:49:53.622Z,4.39
2023-04-14T02:55:00.217Z,3.94
2023-04-14T03:00:06.082Z,3.84
2023-04-14T03:05:18.928Z,3.98
2023-04-14T03:10:32.783Z,4.01
2023-04-14T03:15:37.949Z,3.91
2023-04-14T03:20:45.868Z,3.19
2023-04-14T03:25:50.032Z,3.41
2023-04-14T03:31:01.320Z,3.47
2023-04-14T03:36:13.535Z,3.59
2023-04-14T03:41:20.801Z,3.78
2023-04-14T03:46:26.377Z,3.70
2023-04-14T03:51:33.780Z,3.63
2023-04-14T03:56:38.298Z,3.73
2023-04-14T04:01:42.688Z,3.85
2023-04-14T04:06:49.512Z,3.91
2023-04-14T04:11:54.170Z,3.83
2023-04-14T04:17:01.475Z,3.83
2023-04-14T04:22:07.074Z,3.73
2023-04-14T04:27:24.226Z,3.57
2023-04-14T04:32:31.693Z,3.40
2023-04-14T04:37:36.580Z,3.53
2023-04-14T04:42:42.937Z,3.58
2023-04-14T04:47:48.759Z,3.66
2023-04-14T04:52:53.143Z,3.64
2023-04-14T04:57:55.975Z,3.63
2023-04-14T05:02:59.960Z,3.70
2023-04-14T05:08:04.388Z,3.72
2023-04-14T05:13:07.178Z,3.73
2023-04-14T05:18:10.037Z,3.76
2023-04-14T05:23:14.255Z,3.70
2023-04-14T05:28:17.158Z,3.69
2023-04-14T05:33:20.366Z,3.80
2023-04-14T05:38:24.689Z,3.89
2023-04-14T05:43:27.592Z,3.98
2023-04-14T05:48:31.019Z,4.09
2023-04-14T05:53:35.410Z,4.26
2023-04-14T05:58:38.288Z,4.60
2023-04-14T06:03:41.377Z,4.87
2023-04-14T06:08:45.747Z,5.06
2023-04-14T06:13:48.569Z,5.43
2023-04-14T06:18:51.419Z,5.79
2023-04-14T06:23:55.583Z,6.12
2023-04-14T06:28:59.403Z,6.48
2023-04-14T06:34:02.508Z,6.73
2023-04-14T06:39:06.990Z,6.74
2023-04-14T06:44:09.853Z,7.17
2023-04-14T06:49:13.019Z,7.55
2023-04-14T06:54:17.271Z,7.94
2023-04-14T06:59:21.136Z,8.31
2023-04-14T07:04:24.100Z,8.56
2023-04-14T07:09:29.234Z,8.89
2023-04-14T07:14:33.462Z,9.11
2023-04-14T07:19:36.260Z,9.47
2023-04-14T07:24:40.465Z,9.85
2023-04-14T07:29:43.413Z,10.10
2023-04-14T07:34:46.289Z,9.93
2023-04-14T07:39:50.454Z,10.27
2023-04-14T07:44:53.260Z,10.27
2023-04-14T07:49:58.264Z,10.18
2023-04-14T07:55:02.407Z,9.68
2023-04-14T08:00:05.873Z,10.52
2023-04-14T08:05:15.426Z,10.50
2023-04-14T08:10:19.788Z,11.27
2023-04-14T08:15:22.647Z,11.16
2023-04-14T08:20:25.439Z,11.37
2023-04-14T08:25:29.650Z,12.46
2023-04-14T08:30:32.415Z,13.74
2023-04-14T08:35:41.494Z,16.00
2023-04-14T08:40:49.284Z,17.68
2023-04-14T08:45:52.444Z,15.68
2023-04-14T08:51:02.314Z,13.71
2023-04-14T08:56:09.435Z,14.55
2023-04-14T09:01:12.774Z,15.21
2023-04-14T09:06:15.880Z,14.89
2023-04-14T09:11:20.211Z,14.45
2023-04-14T09:16:23.538Z,14.63
2023-04-14T09:21:50.261Z,15.05
2023-04-14T09:26:52.058Z,15.77
2023-04-14T09:31:55.045Z,15.76
2023-04-14T09:37:03.539Z,15.81
2023-04-14T09:42:07.719Z,16.42
2023-04-14T09:47:10.570Z,16.40
2023-04-14T09:52:13.357Z,16.50
2023-04-14T09:57:27.327Z,16.29
2023-04-14T10:02:30.779Z,16.82
2023-04-14T10:07:34.445Z,17.21
2023-04-14T10:12:38.649Z,17.90
2023-04-14T10:17:41.629Z,17.68
2023-04-14T10:22:44.858Z,17.44
2023-04-14T10:27:50.512Z,18.29
2023-04-14T10:32:53.592Z,18.62
2023-04-14T10:37:56.570Z,18.15
2023-04-14T10:43:00.717Z,18.20
2023-04-14T10:48:03.947Z,18.43
2023-04-14T10:53:09.345Z,19.91
2023-04-14T10:58:20.085Z,21.42
2023-04-14T11:03:23.113Z,23.18
2023-04-14T11:08:27.670Z,23.34
2023-04-14T11:13:32.637Z,24.18
2023-04-14T11:18:38.768Z,24.03
2023-04-14T11:23:42.492Z,23.14
2023-04-14T11:28:46.765Z,23.59
2023-04-14T11:33:49.709Z,23.85
2023-04-14T11:38:52.592Z,23.88
2023-04-14T11:43:56.923Z,23.88
2023-04-14T11:48:59.907Z,24.06
2023-04-14T11:54:03.337Z,23.06
2023-04-14T11:59:07.715Z,21.59
2023-04-14T12:04:12.291Z,19.00
2023-04-14T12:09:15.601Z,17.58
2023-04-14T12:14:20.153Z,16.75
2023-04-14T12:19:23.003Z,17.55
2023-04-14T12:24:25.887Z,17.64
2023-04-14T12:29:30.157Z,18.52
2023-04-14T12:34:32.952Z,20.56
2023-04-14T12:39:50.746Z,21.83
2023-04-14T12:44:59.361Z,23.93
2023-04-14T12:50:04.426Z,26.55
2023-04-14T12:55:08.816Z,26.90
2023-04-14T13:00:14.513Z,25.76
2023-04-14T13:05:17.813Z,24.59
2023-04-14T13:10:21.062Z,23.79
2023-04-14T13:16:12.168Z,23.62
2023-04-14T13:20:53.712Z,24.24
2023-04-14T13:25:56.671Z,23.21
2023-04-14T13:31:01.015Z,22.47
2023-04-14T13:36:04.169Z,21.81
2023-04-14T13:41:07.143Z,21.81
2023-04-14T13:46:11.442Z,21.87
2023-04-14T13:51:14.352Z,22.91
2023-04-14T13:56:17.172Z,23.69
2023-04-14T14:01:21.616Z,23.87
2023-04-14T14:06:24.517Z,23.43
2023-04-14T14:11:27.388Z,23.47
2023-04-14T14:16:37.076Z,23.29
2023-04-14T14:21:40.306Z,23.50
2023-04-14T14:26:43.106Z,23.30
2023-04-14T14:31:47.375Z,23.57
2023-04-14T14:36:50.423Z,23.13
2023-04-14T14:41:53.401Z,21.42
2023-04-14T14:46:58.652Z,21.73
2023-04-14T14:52:04.568Z,22.58
2023-04-14T14:57:07.533Z,22.94
2023-04-14T15:02:11.744Z,23.42
2023-04-14T15:07:14.582Z,23.54
2023-04-14T15:12:17.509Z,23.66
2023-04-14T15:17:21.743Z,23.33
2023-04-14T15:22:24.585Z,23.08
2023-04-14T15:27:27.437Z,22.43
2023-04-14T15:32:31.742Z,22.44
2023-04-14T15:37:34.710Z,22.18
2023-04-14T15:42:37.842Z,21.91
2023-04-14T15:47:42.037Z,21.79
2023-04-14T15:52:44.939Z,21.72
2023-04-14T15:57:49.184Z,21.77
2023-04-14T16:02:53.636Z,21.65
2023-04-14T16:07:57.043Z,21.80
2023-04-14T16:12:59.936Z,21.25
2023-04-14T16:18:04.362Z,21.01
2023-04-14T16:23:07.261Z,20.49
2023-04-14T16:28:10.121Z,20.41
2023-04-14T16:33:14.559Z,20.18
2023-04-14T16:38:17.362Z,19.82
2023-04-14T16:43:20.321Z,19.46
2023-04-14T16:48:24.522Z,19.04
2023-04-14T16:53:27.545Z,18.94
2023-04-14T16:58:30.375Z,18.76
2023-04-14T17:03:34.958Z,18.62
2023-04-14T17:08:38.167Z,18.30
2023-04-14T17:13:42.503Z,17.85
2023-04-14T17:18:46.787Z,17.22
2023-04-14T17:23:49.781Z,16.41
2023-04-14T17:28:52.718Z,15.65
2023-04-14T17:33:57.977Z,15.03
2023-04-14T17:39:00.979Z,14.52
2023-04-14T17:44:04.356Z,14.00
2023-04-14T17:49:08.738Z,13.70
2023-04-14T17:54:11.744Z,13.61
2023-04-14T17:59:14.649Z,13.41
2023-04-14T18:04:18.865Z,13.20
2023-04-14T18:09:21.813Z,13.18
2023-04-14T18:14:26.427Z,13.04
2023-04-14T18:19:30.621Z,12.95
2023-04-14T18:29:39.350Z,12.76
2023-04-14T18:34:43.546Z,12.71
2023-04-14T18:39:46.407Z,12.47
2023-04-14T18:44:49.211Z,12.43
2023-04-14T18:49:53.418Z,12.33
2023-04-14T18:54:57.223Z,12.17
2023-04-14T19:00:00.169Z,12.01
2023-04-14T19:05:04.759Z,11.95
2023-04-14T19:10:08.985Z,11.87
2023-04-14T19:15:13.320Z,11.76
2023-04-14T19:20:17.538Z,11.69
2023-04-14T19:25:20.422Z,11.61
2023-04-14T19:30:23.477Z,11.43
2023-04-14T19:35:27.762Z,11.30
2023-04-14T19:40:31.872Z,11.24
2023-04-14T19:45:34.833Z,11.19
2023-04-14T19:50:39.649Z,11.15
2023-04-14T19:55:42.519Z,11.12
2023-04-14T20:00:45.931Z,10.97
2023-04-14T20:05:52.932Z,10.83
2023-04-14T20:10:55.887Z,10.72
2023-04-14T20:15:58.931Z,10.70
2023-04-14T20:21:04.610Z,10.62
2023-04-14T20:26:07.430Z,10.59
2023-04-14T20:31:10.472Z,10.64
2023-04-14T20:36:14.732Z,10.61
2023-04-14T20:41:17.547Z,10.63
2023-04-14T20:46:22.051Z,10.44
2023-04-14T20:51:26.288Z,10.07
2023-04-14T20:56:30.687Z,9.88
2023-04-14T21:01:33.531Z,9.70
2023-04-14T21:06:38.052Z,9.65
2023-04-14T21:11:41.478Z,9.69
2023-04-14T21:16:44.298Z,9.69
2023-04-14T21:21:48.590Z,9.62
2023-04-14T21:26:51.565Z,9.58
2023-04-14T21:31:54.706Z,9.60
2023-04-14T21:36:59.054Z,9.51
2023-04-14T21:42:03.567Z,9.46
2023-04-14T21:47:07.935Z,9.39
2023-04-14T21:52:12.200Z,9.32
2023-04-14T21:57:14.962Z,9.25
2023-04-14T22:02:17.957Z,9.12
2023-04-14T22:07:22.175Z,9.03
2023-04-14T22:12:25.345Z,9.05
2023-04-14T22:17:28.268Z,8.97
2023-04-14T22:22:32.925Z,8.83
2023-04-14T22:27:36.105Z,8.76
2023-04-14T22:32:38.931Z,8.77
2023-04-14T22:37:43.222Z,8.73
2023-04-14T22:42:46.139Z,8.69
2023-04-14T22:47:49.039Z,8.67
2023-04-14T22:52:53.349Z,8.64
2023-04-14T22:57:56.575Z,8.56
2023-04-14T23:03:00.564Z,8.53
2023-04-14T23:08:05.351Z,8.55
2023-04-14T23:13:08.172Z,8.42
2023-04-14T23:18:11.042Z,8.29
2023-04-14T23:23:15.164Z,8.23
2023-04-14T23:28:18.010Z,8.25
2023-04-14T23:33:20.860Z,8.24
2023-04-14T23:38:25.067Z,8.28
2023-04-14T23:43:28.520Z,8.24
2023-04-14T23:48:31.430Z,8.06
2023-04-14T23:53:36.109Z,8.07
2023-04-14T23:58:39.005Z,7.99
